createdAt,value
2018-02-19T00:00:42.582Z,2.35
2018-02-19T00:01:48.110Z,2.44
2018-02-19T00:02:53.599Z,2.37
2018-02-19T00:03:59.111Z,2.44
2018-02-19T00:05:04.693Z,2.46
2018-02-19T00:06:10.124Z,2.38
2018-02-19T00:07:15.623Z,2.35
2018-02-19T00:08:21.126Z,2.44
2018-02-19T00:09:26.643Z,2.38
2018-02-19T00:10:32.184Z,2.35
2018-02-19T00:11:37.651Z,2.35
2018-02-19T00:12:43.148Z,2.40
2018-02-19T00:13:48.657Z,2.37
2018-02-19T00:14:54.157Z,2.37
2018-02-19T00:15:59.663Z,2.44
2018-02-19T00:17:05.194Z,2.49
2018-02-19T00:18:10.679Z,2.37
2018-02-19T00:19:16.192Z,2.44
2018-02-19T00:20:21.688Z,2.48
2018-02-19T00:21:27.192Z,2.40
2018-02-19T00:22:32.707Z,2.38
2018-02-19T00:23:38.224Z,2.55
2018-02-19T00:24:43.707Z,2.44
2018-02-19T00:25:49.220Z,2.48
2018-02-19T00:26:54.720Z,2.51
2018-02-19T00:28:00.230Z,2.49
2018-02-19T00:29:05.742Z,2.48
2018-02-19T00:30:11.238Z,2.55
2018-02-19T00:31:16.750Z,2.51
2018-02-19T00:32:22.251Z,2.53
2018-02-19T00:33:27.774Z,2.58
2018-02-19T00:34:33.261Z,2.53
2018-02-19T00:35:38.767Z,2.52
2018-02-19T00:36:44.272Z,2.55
2018-02-19T00:37:49.779Z,2.51
2018-02-19T00:38:55.289Z,2.41
2018-02-19T00:40:00.788Z,2.40
2018-02-19T00:41:06.307Z,2.35
2018-02-19T00:42:11.817Z,2.37
2018-02-19T00:43:17.309Z,2.26
2018-02-19T00:44:22.814Z,2.30
2018-02-19T00:45:28.323Z,2.34
2018-02-19T00:46:33.826Z,2.28
2018-02-19T00:47:39.331Z,2.31
2018-02-19T00:48:44.838Z,2.38
2018-02-19T00:49:50.340Z,2.34
2018-02-19T00:50:55.849Z,2.34
2018-02-19T00:52:01.355Z,2.45
2018-02-19T00:53:06.905Z,2.40
2018-02-19T00:54:12.375Z,2.45
2018-02-19T00:55:17.873Z,2.48
2018-02-19T00:56:23.379Z,2.53
2018-02-19T00:57:28.883Z,2.53
2018-02-19T00:58:34.385Z,2.52
2018-02-19T00:59:39.892Z,2.55
2018-02-19T01:00:45.397Z,2.56
2018-02-19T01:01:50.905Z,2.48
2018-02-19T01:02:56.410Z,2.49
2018-02-19T01:04:01.981Z,2.53
2018-02-19T01:05:07.428Z,2.51
2018-02-19T01:06:12.982Z,2.51
2018-02-19T01:07:18.430Z,2.53
2018-02-19T01:08:23.938Z,2.38
2018-02-19T01:09:29.469Z,2.37
2018-02-19T01:10:34.957Z,2.40
2018-02-19T01:11:40.455Z,2.44
2018-02-19T01:12:45.960Z,2.34
2018-02-19T01:13:51.471Z,2.40
2018-02-19T01:14:56.973Z,2.48
2018-02-19T01:16:02.482Z,2.44
2018-02-19T01:17:07.983Z,2.40
2018-02-19T01:18:13.489Z,2.52
2018-02-19T01:19:19.002Z,2.38
2018-02-19T01:20:24.498Z,2.31
2018-02-19T01:21:30.018Z,2.34
2018-02-19T01:22:35.514Z,2.37
2018-02-19T01:23:41.026Z,2.34
2018-02-19T01:24:46.523Z,2.33
2018-02-19T01:25:52.028Z,2.37
2018-02-19T01:26:57.545Z,2.37
2018-02-19T01:28:03.049Z,2.35
2018-02-19T01:29:08.548Z,2.40
2018-02-19T01:30:14.053Z,2.40
2018-02-19T01:31:19.555Z,2.28
2018-02-19T01:32:25.059Z,2.35
2018-02-19T01:33:30.565Z,2.37
2018-02-19T01:34:36.073Z,2.40
2018-02-19T01:35:41.576Z,2.37
2018-02-19T01:36:47.142Z,2.40
2018-02-19T01:37:52.590Z,2.35
2018-02-19T01:38:58.095Z,2.35
2018-02-19T01:40:03.600Z,2.46
2018-02-19T01:41:09.103Z,2.34
2018-02-19T01:42:14.607Z,2.35
2018-02-19T01:43:20.125Z,2.45
2018-02-19T01:44:25.623Z,2.33
2018-02-19T01:45:31.132Z,2.34
2018-02-19T01:46:36.638Z,2.38
2018-02-19T01:47:42.140Z,2.35
2018-02-19T01:48:47.649Z,2.41
2018-02-19T01:49:53.162Z,2.33
2018-02-19T01:50:58.656Z,2.35
2018-02-19T01:52:04.226Z,2.35
2018-02-19T01:53:09.664Z,2.48
2018-02-19T01:54:15.176Z,2.34
2018-02-19T01:55:20.676Z,2.46
2018-02-19T01:56:26.179Z,2.45
2018-02-19T01:57:31.699Z,2.45
2018-02-19T01:58:37.188Z,2.44
2018-02-19T01:59:42.699Z,2.53
2018-02-19T02:00:48.200Z,2.52
2018-02-19T02:01:53.707Z,2.51
2018-02-19T02:02:59.219Z,2.53
2018-02-19T02:04:04.716Z,2.56
2018-02-19T02:05:10.233Z,2.58
2018-02-19T02:06:15.729Z,2.51
2018-02-19T02:07:21.283Z,2.63
2018-02-19T02:08:26.750Z,2.53
2018-02-19T02:09:32.248Z,2.58
2018-02-19T02:10:37.749Z,2.58
2018-02-19T02:11:43.254Z,2.53
2018-02-19T02:12:48.766Z,2.58
2018-02-19T02:13:54.269Z,2.63
2018-02-19T02:14:59.776Z,2.61
2018-02-19T02:16:05.280Z,2.64
2018-02-19T02:17:10.784Z,2.64
2018-02-19T02:18:16.287Z,2.61
2018-02-19T02:19:21.798Z,2.58
2018-02-19T02:20:27.304Z,2.53
2018-02-19T02:21:32.808Z,2.55
2018-02-19T02:22:38.316Z,2.56
2018-02-19T02:23:43.816Z,2.59
2018-02-19T02:24:49.321Z,2.53
2018-02-19T02:25:54.828Z,2.45
2018-02-19T02:27:00.337Z,2.46
2018-02-19T02:28:05.840Z,2.63
2018-02-19T02:29:11.352Z,2.52
2018-02-19T02:30:16.856Z,2.58
2018-02-19T02:31:22.357Z,2.51
2018-02-19T02:32:27.869Z,2.51
2018-02-19T02:33:33.367Z,2.53
2018-02-19T02:34:38.879Z,2.63
2018-02-19T02:35:44.381Z,2.55
2018-02-19T02:36:49.885Z,2.46
2018-02-19T02:37:55.396Z,2.53
2018-02-19T02:39:00.907Z,2.55
2018-02-19T02:40:06.400Z,2.58
2018-02-19T02:41:11.907Z,2.56
2018-02-19T02:42:17.414Z,2.58
2018-02-19T02:43:22.913Z,2.56
2018-02-19T02:44:28.422Z,2.58
2018-02-19T02:45:33.941Z,2.55
2018-02-19T02:46:39.435Z,2.59
2018-02-19T02:47:44.947Z,2.56
2018-02-19T02:48:50.465Z,2.56
2018-02-19T02:49:55.957Z,2.58
2018-02-19T02:51:01.462Z,2.67
2018-02-19T02:52:06.960Z,2.63
2018-02-19T02:53:12.471Z,2.61
2018-02-19T02:54:17.969Z,2.59
2018-02-19T02:55:23.477Z,2.61
2018-02-19T02:56:28.997Z,2.56
2018-02-19T02:57:34.487Z,2.63
2018-02-19T02:58:39.995Z,2.56
2018-02-19T02:59:45.499Z,2.51
2018-02-19T03:00:51.004Z,2.59
2018-02-19T03:01:56.510Z,2.58
2018-02-19T03:03:02.023Z,2.61
2018-02-19T03:04:07.524Z,2.58
2018-02-19T03:05:13.031Z,2.59
2018-02-19T03:06:18.533Z,2.55
2018-02-19T03:07:24.036Z,2.61
2018-02-19T03:08:29.546Z,2.67
2018-02-19T03:09:35.048Z,2.58
2018-02-19T03:10:40.555Z,2.61
2018-02-19T03:11:46.059Z,2.63
2018-02-19T03:12:51.570Z,2.58
2018-02-19T03:13:57.072Z,2.58
2018-02-19T03:15:02.592Z,2.64
2018-02-19T03:16:08.086Z,2.58
2018-02-19T03:17:13.591Z,2.56
2018-02-19T03:18:19.092Z,2.58
2018-02-19T03:19:24.597Z,2.59
2018-02-19T03:20:30.104Z,2.59
2018-02-19T03:21:35.609Z,2.56
2018-02-19T03:22:41.117Z,2.61
2018-02-19T03:23:46.638Z,2.59
2018-02-19T03:24:52.128Z,2.56
2018-02-19T03:25:57.634Z,2.59
2018-02-19T03:27:03.144Z,2.58
2018-02-19T03:28:08.640Z,2.55
2018-02-19T03:29:14.145Z,2.56
2018-02-19T03:30:19.658Z,2.56
2018-02-19T03:31:25.165Z,2.55
2018-02-19T03:32:30.674Z,2.56
2018-02-19T03:33:36.188Z,2.55
2018-02-19T03:34:41.761Z,2.63
2018-02-19T03:35:47.185Z,2.64
2018-02-19T03:36:52.689Z,2.63
2018-02-19T03:37:58.196Z,2.64
2018-02-19T03:39:03.698Z,2.64
2018-02-19T03:40:09.211Z,2.58
2018-02-19T03:41:14.711Z,2.63
2018-02-19T03:42:20.217Z,2.63
2018-02-19T03:43:25.723Z,2.63
2018-02-19T03:44:31.231Z,2.64
2018-02-19T03:45:36.728Z,2.56
2018-02-19T03:46:42.241Z,2.59
2018-02-19T03:47:47.747Z,2.66
2018-02-19T03:48:53.252Z,2.56
2018-02-19T03:49:58.754Z,2.59
2018-02-19T03:51:04.255Z,2.55
2018-02-19T03:52:09.768Z,2.66
2018-02-19T03:53:15.270Z,2.55
2018-02-19T03:54:20.773Z,2.63
2018-02-19T03:55:26.281Z,2.61
2018-02-19T03:56:31.783Z,2.55
2018-02-19T03:57:37.288Z,2.64
2018-02-19T03:58:42.799Z,2.64
2018-02-19T03:59:48.321Z,2.71
2018-02-19T04:00:53.811Z,2.64
2018-02-19T04:01:59.312Z,2.63
2018-02-19T04:03:04.825Z,2.64
2018-02-19T04:04:10.323Z,2.71
2018-02-19T04:05:15.828Z,2.70
2018-02-19T04:06:21.340Z,2.64
2018-02-19T04:07:26.842Z,2.69
2018-02-19T04:08:32.348Z,2.69
2018-02-19T04:09:37.851Z,2.67
2018-02-19T04:10:43.355Z,2.64
2018-02-19T04:11:48.862Z,2.70
2018-02-19T04:12:54.368Z,2.70
2018-02-19T04:13:59.881Z,2.76
2018-02-19T04:15:05.384Z,2.82
2018-02-19T04:16:10.886Z,2.94
2018-02-19T04:17:16.389Z,2.95
2018-02-19T04:18:21.896Z,2.97
2018-02-19T04:19:27.414Z,2.97
2018-02-19T04:20:32.908Z,2.97
2018-02-19T04:21:38.415Z,2.94
2018-02-19T04:22:43.921Z,2.95
2018-02-19T04:23:49.428Z,2.89
2018-02-19T04:24:54.935Z,2.95
2018-02-19T04:26:00.438Z,2.92
2018-02-19T04:27:06.093Z,2.85
2018-02-19T04:28:11.449Z,2.88
2018-02-19T04:29:16.953Z,2.81
2018-02-19T04:30:22.465Z,2.79
2018-02-19T04:31:27.972Z,2.77
2018-02-19T04:32:33.474Z,2.79
2018-02-19T04:33:38.980Z,2.79
2018-02-19T04:34:44.487Z,2.81
2018-02-19T04:35:49.991Z,2.81
2018-02-19T04:36:55.499Z,2.73
2018-02-19T04:38:00.997Z,2.79
2018-02-19T04:39:06.509Z,2.82
2018-02-19T04:40:12.010Z,2.82
2018-02-19T04:41:17.516Z,2.81
2018-02-19T04:42:23.034Z,2.79
2018-02-19T04:43:28.546Z,2.71
2018-02-19T04:44:34.038Z,2.79
2018-02-19T04:45:39.539Z,2.71
2018-02-19T04:46:45.060Z,2.79
2018-02-19T04:47:50.559Z,2.73
2018-02-19T04:48:56.055Z,2.74
2018-02-19T04:50:01.568Z,2.67
2018-02-19T04:51:07.072Z,2.64
2018-02-19T04:52:12.579Z,2.70
2018-02-19T04:53:18.079Z,2.69
2018-02-19T04:54:23.586Z,2.79
2018-02-19T04:55:29.089Z,2.81
2018-02-19T04:56:34.597Z,2.87
2018-02-19T04:57:40.102Z,2.84
2018-02-19T04:58:45.605Z,2.87
2018-02-19T04:59:51.121Z,2.81
2018-02-19T05:00:56.618Z,2.76
2018-02-19T05:02:02.125Z,2.81
2018-02-19T05:03:07.633Z,2.79
2018-02-19T05:04:13.138Z,2.76
2018-02-19T05:05:18.642Z,2.77
2018-02-19T05:06:24.146Z,2.74
2018-02-19T05:07:29.650Z,2.77
2018-02-19T05:08:35.157Z,2.74
2018-02-19T05:09:40.666Z,2.76
2018-02-19T05:10:46.168Z,2.76
2018-02-19T05:11:51.676Z,2.77
2018-02-19T05:12:57.200Z,2.74
2018-02-19T05:14:02.728Z,2.81
2018-02-19T05:15:08.189Z,2.73
2018-02-19T05:16:13.697Z,2.81
2018-02-19T05:17:19.202Z,2.71
2018-02-19T05:18:24.709Z,2.71
2018-02-19T05:19:30.217Z,2.74
2018-02-19T05:20:35.719Z,2.73
2018-02-19T05:21:41.231Z,2.70
2018-02-19T05:22:46.728Z,2.64
2018-02-19T05:23:52.233Z,2.66
2018-02-19T05:24:57.741Z,2.71
2018-02-19T05:26:03.247Z,2.67
2018-02-19T05:27:08.753Z,2.64
2018-02-19T05:28:14.259Z,2.71
2018-02-19T05:29:19.760Z,2.64
2018-02-19T05:30:25.269Z,2.64
2018-02-19T05:31:30.779Z,2.71
2018-02-19T05:32:36.281Z,2.67
2018-02-19T05:33:41.789Z,2.70
2018-02-19T05:34:47.290Z,2.66
2018-02-19T05:35:52.801Z,2.71
2018-02-19T05:36:58.305Z,2.70
2018-02-19T05:38:03.818Z,2.69
2018-02-19T05:39:09.315Z,2.70
2018-02-19T05:40:14.820Z,2.61
2018-02-19T05:41:20.323Z,2.67
2018-02-19T05:42:25.830Z,2.59
2018-02-19T05:43:31.337Z,2.61
2018-02-19T05:44:36.861Z,2.61
2018-02-19T05:45:42.348Z,2.58
2018-02-19T05:46:47.851Z,2.63
2018-02-19T05:47:53.357Z,2.59
2018-02-19T05:48:58.864Z,2.66
2018-02-19T05:50:04.381Z,2.64
2018-02-19T05:51:09.885Z,2.55
2018-02-19T05:52:15.382Z,2.56
2018-02-19T05:53:20.897Z,2.63
2018-02-19T05:54:26.394Z,2.66
2018-02-19T05:55:31.897Z,2.61
2018-02-19T05:56:37.409Z,2.63
2018-02-19T05:57:42.907Z,2.64
2018-02-19T05:58:48.411Z,2.61
2018-02-19T05:59:53.924Z,2.61
2018-02-19T06:00:59.426Z,2.73
2018-02-19T06:02:04.935Z,2.71
2018-02-19T06:03:10.438Z,2.71
2018-02-19T06:04:15.950Z,2.69
2018-02-19T06:05:21.446Z,2.71
2018-02-19T06:06:26.953Z,2.76
2018-02-19T06:07:32.473Z,2.79
2018-02-19T06:08:37.964Z,2.76
2018-02-19T06:09:43.467Z,2.79
2018-02-19T06:10:48.979Z,2.79
2018-02-19T06:11:54.478Z,2.82
2018-02-19T06:12:59.983Z,2.84
2018-02-19T06:14:05.488Z,2.82
2018-02-19T06:15:10.996Z,2.82
2018-02-19T06:16:16.502Z,2.84
2018-02-19T06:17:22.015Z,2.77
2018-02-19T06:18:27.513Z,2.79
2018-02-19T06:19:33.017Z,2.77
2018-02-19T06:20:38.525Z,2.79
2018-02-19T06:21:44.028Z,2.82
2018-02-19T06:22:49.534Z,2.82
2018-02-19T06:23:55.041Z,2.85
2018-02-19T06:25:00.549Z,2.85
2018-02-19T06:26:06.055Z,2.87
2018-02-19T06:27:11.566Z,2.84
2018-02-19T06:28:17.063Z,2.84
2018-02-19T06:29:22.568Z,2.87
2018-02-19T06:30:28.081Z,2.85
2018-02-19T06:31:33.580Z,2.82
2018-02-19T06:32:39.088Z,2.81
2018-02-19T06:33:44.591Z,2.89
2018-02-19T06:34:50.097Z,2.88
2018-02-19T06:35:55.633Z,2.88
2018-02-19T06:37:01.110Z,2.84
2018-02-19T06:38:06.614Z,2.87
2018-02-19T06:39:12.120Z,2.89
2018-02-19T06:40:17.626Z,2.91
2018-02-19T06:41:23.130Z,2.84
2018-02-19T06:42:28.635Z,2.88
2018-02-19T06:43:34.153Z,2.87
2018-02-19T06:44:39.647Z,2.84
2018-02-19T06:45:45.154Z,2.77
2018-02-19T06:46:50.658Z,2.89
2018-02-19T06:47:56.162Z,2.81
2018-02-19T06:49:01.670Z,2.91
2018-02-19T06:50:07.180Z,2.94
2018-02-19T06:51:12.683Z,2.94
2018-02-19T06:52:18.186Z,2.97
2018-02-19T06:53:23.693Z,3.00
2018-02-19T06:54:29.200Z,2.92
2018-02-19T06:55:34.790Z,2.98
2018-02-19T06:56:40.214Z,3.00
2018-02-19T06:57:45.764Z,3.05
2018-02-19T06:58:51.224Z,3.00
2018-02-19T06:59:56.726Z,2.95
2018-02-19T07:01:02.238Z,2.98
2018-02-19T07:02:07.737Z,3.03
2018-02-19T07:03:13.248Z,2.95
2018-02-19T07:04:18.759Z,3.05
2018-02-19T07:05:24.259Z,2.98
2018-02-19T07:06:29.760Z,3.07
2018-02-19T07:07:35.269Z,3.03
2018-02-19T07:08:40.786Z,3.07
2018-02-19T07:09:46.278Z,2.98
2018-02-19T07:10:51.784Z,2.95
2018-02-19T07:11:57.288Z,3.07
2018-02-19T07:13:02.801Z,2.95
2018-02-19T07:14:08.309Z,3.06
2018-02-19T07:15:13.809Z,3.13
2018-02-19T07:16:19.316Z,3.06
2018-02-19T07:17:24.817Z,3.07
2018-02-19T07:18:30.329Z,3.03
2018-02-19T07:19:35.881Z,3.10
2018-02-19T07:20:41.338Z,3.07
2018-02-19T07:21:46.844Z,3.05
2018-02-19T07:22:52.348Z,3.10
2018-02-19T07:23:57.867Z,3.15
2018-02-19T07:25:03.401Z,3.09
2018-02-19T07:26:08.866Z,3.06
2018-02-19T07:27:14.376Z,3.09
2018-02-19T07:28:19.878Z,3.09
2018-02-19T07:29:25.381Z,3.07
2018-02-19T07:30:30.899Z,3.23
2018-02-19T07:31:36.396Z,3.06
2018-02-19T07:32:41.898Z,3.16
2018-02-19T07:33:47.408Z,3.20
2018-02-19T07:34:52.916Z,3.25
2018-02-19T07:35:58.421Z,3.21
2018-02-19T07:37:03.933Z,3.21
2018-02-19T07:38:09.429Z,3.23
2018-02-19T07:39:14.936Z,3.20
2018-02-19T07:40:20.446Z,3.30
2018-02-19T07:41:25.946Z,3.24
2018-02-19T07:42:31.452Z,3.24
2018-02-19T07:43:36.958Z,3.25
2018-02-19T07:44:42.474Z,3.28
2018-02-19T07:45:48.010Z,3.30
2018-02-19T07:46:53.478Z,3.28
2018-02-19T07:47:58.982Z,3.25
2018-02-19T07:49:04.495Z,3.34
2018-02-19T07:50:09.996Z,3.21
2018-02-19T07:51:15.514Z,3.20
2018-02-19T07:52:21.011Z,3.36
2018-02-19T07:53:26.518Z,3.40
2018-02-19T07:54:32.017Z,3.34
2018-02-19T07:55:37.524Z,3.31
2018-02-19T07:56:43.033Z,3.34
2018-02-19T07:57:48.534Z,3.33
2018-02-19T07:58:54.045Z,3.34
2018-02-19T07:59:59.549Z,3.43
2018-02-19T08:01:05.052Z,3.36
2018-02-19T08:02:10.560Z,3.42
2018-02-19T08:03:16.062Z,3.34
2018-02-19T08:04:21.568Z,3.43
2018-02-19T08:05:27.077Z,3.39
2018-02-19T08:06:32.584Z,3.40
2018-02-19T08:07:38.089Z,3.40
2018-02-19T08:08:43.599Z,3.43
2018-02-19T08:09:49.107Z,3.43
2018-02-19T08:10:54.609Z,3.44
2018-02-19T08:12:00.112Z,3.47
2018-02-19T08:13:05.621Z,3.33
2018-02-19T08:14:11.121Z,3.31
2018-02-19T08:15:16.640Z,3.44
2018-02-19T08:16:22.136Z,3.36
2018-02-19T08:17:27.641Z,3.33
2018-02-19T08:18:33.150Z,3.40
2018-02-19T08:19:38.651Z,3.44
2018-02-19T08:20:44.160Z,3.43
2018-02-19T08:21:49.663Z,3.44
2018-02-19T08:22:55.180Z,3.43
2018-02-19T08:24:00.675Z,3.54
2018-02-19T08:25:06.180Z,3.57
2018-02-19T08:26:11.690Z,3.57
2018-02-19T08:27:17.202Z,3.60
2018-02-19T08:28:22.698Z,3.54
2018-02-19T08:29:28.269Z,3.61
2018-02-19T08:30:33.710Z,3.58
2018-02-19T08:31:39.218Z,3.68
2018-02-19T08:32:44.727Z,3.67
2018-02-19T08:33:50.230Z,3.75
2018-02-19T08:34:55.735Z,3.82
2018-02-19T08:36:01.247Z,3.79
2018-02-19T08:37:06.751Z,3.85
2018-02-19T08:38:12.258Z,3.82
2018-02-19T08:39:17.761Z,3.92
2018-02-19T08:40:23.269Z,3.89
2018-02-19T08:41:28.815Z,4.03
2018-02-19T08:42:34.280Z,4.01
2018-02-19T08:43:39.787Z,4.06
2018-02-19T08:44:45.302Z,4.15
2018-02-19T08:45:50.800Z,4.15
2018-02-19T08:46:56.303Z,4.22
2018-02-19T08:48:01.814Z,4.21
2018-02-19T08:49:07.315Z,4.25
2018-02-19T08:50:12.832Z,4.24
2018-02-19T08:51:18.331Z,4.29
2018-02-19T08:52:23.842Z,4.39
2018-02-19T08:53:29.347Z,4.39
2018-02-19T08:54:34.848Z,4.40
2018-02-19T08:55:40.353Z,4.34
2018-02-19T08:56:45.869Z,4.44
2018-02-19T08:57:51.399Z,4.47
2018-02-19T08:58:56.874Z,4.47
2018-02-19T09:00:02.383Z,4.51
2018-02-19T09:01:07.890Z,4.51
2018-02-19T09:02:13.394Z,4.61
2018-02-19T09:03:18.902Z,4.64
2018-02-19T09:04:24.416Z,4.69
2018-02-19T09:05:29.951Z,4.62
2018-02-19T09:06:35.421Z,4.73
2018-02-19T09:07:40.953Z,4.67
2018-02-19T09:08:46.440Z,4.72
2018-02-19T09:09:51.953Z,4.73
2018-02-19T09:10:57.451Z,4.75
2018-02-19T09:12:02.971Z,4.80
2018-02-19T09:13:08.465Z,4.86
2018-02-19T09:14:13.970Z,4.89
2018-02-19T09:15:19.476Z,4.86
2018-02-19T09:16:24.984Z,4.88
2018-02-19T09:17:30.491Z,4.84
2018-02-19T09:18:36.000Z,4.73
2018-02-19T09:19:41.509Z,4.83
2018-02-19T09:20:47.017Z,4.70
2018-02-19T09:21:52.517Z,4.73
2018-02-19T09:22:58.030Z,4.77
2018-02-19T09:24:03.533Z,4.79
2018-02-19T09:25:09.039Z,4.75
2018-02-19T09:26:14.544Z,4.73
2018-02-19T09:27:20.051Z,4.79
2018-02-19T09:28:25.560Z,4.84
2018-02-19T09:29:31.067Z,4.75
2018-02-19T09:30:36.572Z,4.73
2018-02-19T09:31:42.077Z,4.76
2018-02-19T09:32:47.587Z,4.77
2018-02-19T09:33:53.099Z,4.77
2018-02-19T09:34:58.598Z,4.76
2018-02-19T09:36:04.107Z,4.79
2018-02-19T09:37:09.615Z,4.76
2018-02-19T09:38:15.119Z,4.80
2018-02-19T09:39:20.635Z,4.77
2018-02-19T09:40:26.136Z,4.83
2018-02-19T09:41:31.642Z,4.91
2018-02-19T09:42:37.160Z,4.89
2018-02-19T09:43:42.660Z,4.91
2018-02-19T09:44:48.278Z,4.92
2018-02-19T09:45:53.766Z,5.01
2018-02-19T09:46:59.199Z,5.10
2018-02-19T09:48:04.708Z,5.05
2018-02-19T09:49:10.198Z,5.07
2018-02-19T09:50:15.755Z,5.09
2018-02-19T09:51:21.217Z,5.17
2018-02-19T09:52:26.726Z,5.23
2018-02-19T09:53:32.279Z,5.31
2018-02-19T09:54:37.731Z,5.40
2018-02-19T09:55:43.239Z,5.40
2018-02-19T09:56:48.741Z,5.45
2018-02-19T09:57:54.250Z,5.49
2018-02-19T09:58:59.803Z,5.59
2018-02-19T10:00:05.262Z,5.59
2018-02-19T10:01:10.767Z,5.59
2018-02-19T10:02:16.284Z,5.66
2018-02-19T10:03:21.796Z,5.67
2018-02-19T10:04:27.305Z,5.68
2018-02-19T10:05:32.848Z,5.68
2018-02-19T10:06:38.307Z,5.67
2018-02-19T10:07:43.814Z,5.74
2018-02-19T10:08:49.323Z,5.63
2018-02-19T10:09:54.829Z,5.78
2018-02-19T10:11:00.352Z,5.68
2018-02-19T10:12:05.902Z,5.82
2018-02-19T10:13:11.352Z,5.73
2018-02-19T10:14:16.856Z,5.81
2018-02-19T10:15:22.369Z,5.83
2018-02-19T10:16:27.884Z,5.93
2018-02-19T10:17:33.382Z,6.03
2018-02-19T10:18:38.909Z,6.04
2018-02-19T10:19:44.399Z,6.06
2018-02-19T10:20:49.909Z,6.01
2018-02-19T10:21:55.420Z,6.16
2018-02-19T10:23:00.919Z,6.13
2018-02-19T10:24:06.429Z,6.22
2018-02-19T10:25:11.954Z,6.46
2018-02-19T10:26:17.443Z,6.48
2018-02-19T10:27:22.955Z,6.48
2018-02-19T10:28:28.460Z,6.51
2018-02-19T10:29:33.970Z,6.50
2018-02-19T10:30:39.479Z,6.58
2018-02-19T10:31:44.991Z,6.62
2018-02-19T10:32:50.491Z,6.69
2018-02-19T10:33:55.997Z,6.73
2018-02-19T10:35:01.510Z,6.83
2018-02-19T10:36:07.015Z,6.81
2018-02-19T10:37:12.530Z,6.90
2018-02-19T10:38:18.030Z,6.91
2018-02-19T10:39:23.543Z,6.94
2018-02-19T10:40:29.048Z,6.97
2018-02-19T10:41:34.563Z,7.01
2018-02-19T10:42:40.090Z,7.07
2018-02-19T10:43:45.585Z,7.05
2018-02-19T10:44:51.107Z,7.05
2018-02-19T10:45:56.600Z,7.07
2018-02-19T10:47:02.098Z,7.07
2018-02-19T10:48:07.609Z,7.17
2018-02-19T10:49:13.113Z,7.17
2018-02-19T10:50:18.619Z,7.24
2018-02-19T10:51:24.131Z,7.20
2018-02-19T10:52:29.642Z,7.26
2018-02-19T10:53:35.148Z,7.26
2018-02-19T10:54:40.666Z,7.38
2018-02-19T10:55:46.171Z,7.44
2018-02-19T10:56:51.675Z,7.55
2018-02-19T10:57:57.187Z,7.52
2018-02-19T10:59:02.694Z,7.50
2018-02-19T11:00:08.198Z,7.66
2018-02-19T11:01:13.708Z,7.66
2018-02-19T11:02:19.234Z,7.66
2018-02-19T11:03:24.917Z,7.74
2018-02-19T11:04:30.291Z,7.78
2018-02-19T11:05:35.747Z,7.74
2018-02-19T11:06:41.255Z,7.85
2018-02-19T11:07:46.765Z,7.84
2018-02-19T11:08:52.269Z,7.89
2018-02-19T11:09:57.778Z,7.94
2018-02-19T11:11:03.290Z,7.93
2018-02-19T11:12:08.799Z,7.99
2018-02-19T11:13:14.351Z,7.97
2018-02-19T11:14:19.820Z,8.03
2018-02-19T11:15:25.327Z,8.11
2018-02-19T11:16:30.836Z,8.10
2018-02-19T11:17:36.345Z,8.15
2018-02-19T11:18:41.855Z,8.11
2018-02-19T11:19:47.365Z,8.20
2018-02-19T11:20:52.874Z,8.14
2018-02-19T11:21:58.385Z,8.21
2018-02-19T11:23:03.897Z,8.18
2018-02-19T11:24:09.440Z,8.22
2018-02-19T11:25:14.922Z,8.33
2018-02-19T11:26:20.420Z,8.33
2018-02-19T11:27:25.932Z,8.37
2018-02-19T11:28:31.439Z,8.36
2018-02-19T11:29:36.991Z,8.40
2018-02-19T11:30:42.459Z,8.40
2018-02-19T11:31:47.972Z,8.40
2018-02-19T11:32:53.474Z,8.39
2018-02-19T11:33:58.996Z,8.45
2018-02-19T11:35:04.521Z,8.36
2018-02-19T11:36:10.006Z,8.53
2018-02-19T11:37:15.515Z,8.51
2018-02-19T11:38:21.026Z,8.55
2018-02-19T11:39:26.531Z,8.60
2018-02-19T11:40:32.048Z,8.53
2018-02-19T11:41:37.554Z,8.47
2018-02-19T11:42:43.062Z,8.40
2018-02-19T11:43:48.569Z,8.55
2018-02-19T11:44:54.079Z,8.57
2018-02-19T11:45:59.595Z,8.60
2018-02-19T11:47:05.102Z,8.50
2018-02-19T11:48:10.605Z,8.55
2018-02-19T11:49:16.120Z,8.50
2018-02-19T11:50:21.631Z,8.53
2018-02-19T11:51:27.138Z,8.57
2018-02-19T11:52:32.649Z,8.55
2018-02-19T11:53:38.155Z,8.63
2018-02-19T11:54:43.680Z,8.62
2018-02-19T11:55:49.179Z,8.55
2018-02-19T11:56:54.696Z,8.50
2018-02-19T11:58:00.198Z,8.54
2018-02-19T11:59:05.704Z,8.55
2018-02-19T12:00:11.213Z,8.63
2018-02-19T12:01:16.727Z,8.66
2018-02-19T12:02:22.355Z,8.66
2018-02-19T12:03:27.749Z,8.69
2018-02-19T12:04:33.254Z,8.68
2018-02-19T12:05:38.771Z,8.73
2018-02-19T12:06:44.277Z,8.69
2018-02-19T12:07:49.789Z,8.68
2018-02-19T12:08:55.309Z,8.68
2018-02-19T12:10:00.809Z,8.68
2018-02-19T12:11:06.315Z,8.76
2018-02-19T12:12:11.824Z,8.73
2018-02-19T12:13:17.334Z,8.78
2018-02-19T12:14:22.839Z,8.87
2018-02-19T12:15:28.351Z,8.79
2018-02-19T12:16:33.862Z,8.81
2018-02-19T12:17:39.371Z,8.83
2018-02-19T12:18:44.889Z,8.83
2018-02-19T12:19:50.396Z,8.73
2018-02-19T12:20:55.899Z,8.63
2018-02-19T12:22:01.409Z,8.73
2018-02-19T12:23:06.918Z,8.71
2018-02-19T12:24:12.434Z,8.63
2018-02-19T12:25:17.937Z,8.86
2018-02-19T12:26:23.465Z,8.94
2018-02-19T12:27:28.959Z,9.04
2018-02-19T12:28:34.467Z,8.96
2018-02-19T12:29:39.985Z,8.99
2018-02-19T12:30:45.487Z,9.02
2018-02-19T12:31:50.996Z,9.12
2018-02-19T12:32:56.507Z,9.23
2018-02-19T12:34:02.018Z,9.32
2018-02-19T12:35:07.531Z,9.23
2018-02-19T12:36:13.036Z,9.27
2018-02-19T12:37:18.554Z,9.32
2018-02-19T12:38:24.057Z,9.27
2018-02-19T12:39:29.582Z,9.21
2018-02-19T12:40:35.078Z,9.21
2018-02-19T12:41:40.593Z,9.09
2018-02-19T12:42:46.101Z,9.09
2018-02-19T12:43:51.610Z,8.93
2018-02-19T12:44:57.131Z,8.81
2018-02-19T12:46:02.653Z,8.83
2018-02-19T12:47:08.139Z,8.73
2018-02-19T12:48:13.649Z,8.81
2018-02-19T12:49:19.164Z,8.97
2018-02-19T12:50:24.669Z,9.21
2018-02-19T12:51:30.177Z,9.56
2018-02-19T12:52:35.696Z,10.32
2018-02-19T12:53:41.211Z,10.99
2018-02-19T12:54:46.711Z,11.32
2018-02-19T12:55:52.222Z,11.28
2018-02-19T12:56:57.736Z,11.31
2018-02-19T12:58:03.248Z,11.28
2018-02-19T12:59:08.753Z,11.27
2018-02-19T13:00:14.262Z,11.11
2018-02-19T13:01:19.773Z,10.89
2018-02-19T13:02:25.292Z,10.74
2018-02-19T13:03:30.796Z,10.65
2018-02-19T13:04:36.308Z,10.63
2018-02-19T13:05:41.822Z,10.58
2018-02-19T13:06:47.325Z,10.94
2018-02-19T13:07:52.837Z,11.31
2018-02-19T13:08:58.364Z,11.67
2018-02-19T13:10:03.857Z,12.60
2018-02-19T13:11:09.376Z,13.11
2018-02-19T13:12:14.888Z,13.38
2018-02-19T13:13:20.398Z,13.49
2018-02-19T13:14:25.903Z,13.27
2018-02-19T13:15:31.419Z,13.09
2018-02-19T13:16:36.930Z,13.20
2018-02-19T13:17:42.440Z,13.30
2018-02-19T13:18:47.965Z,13.44
2018-02-19T13:19:53.468Z,13.58
2018-02-19T13:20:58.977Z,13.80
2018-02-19T13:22:04.494Z,14.12
2018-02-19T13:23:10.008Z,14.09
2018-02-19T13:24:15.522Z,14.17
2018-02-19T13:25:21.037Z,13.91
2018-02-19T13:26:26.553Z,13.73
2018-02-19T13:27:32.067Z,13.80
2018-02-19T13:28:37.571Z,13.98
2018-02-19T13:29:43.089Z,14.10
2018-02-19T13:30:48.600Z,13.91
2018-02-19T13:31:54.113Z,14.02
2018-02-19T13:32:59.643Z,13.65
2018-02-19T13:34:05.148Z,13.27
2018-02-19T13:35:10.653Z,13.06
2018-02-19T13:36:16.171Z,12.77
2018-02-19T13:37:21.692Z,12.51
2018-02-19T13:38:27.196Z,12.24
2018-02-19T13:39:32.715Z,12.16
2018-02-19T13:40:38.231Z,11.90
2018-02-19T13:41:43.737Z,11.68
2018-02-19T13:42:49.246Z,11.52
2018-02-19T13:43:54.767Z,11.36
2018-02-19T13:45:00.300Z,11.32
2018-02-19T13:46:05.785Z,11.21
2018-02-19T13:47:11.309Z,11.10
2018-02-19T13:48:16.818Z,10.99
2018-02-19T13:49:22.328Z,10.91
2018-02-19T13:50:27.840Z,10.74
2018-02-19T13:51:33.349Z,10.62
2018-02-19T13:52:38.866Z,10.58
2018-02-19T13:53:44.483Z,10.51
2018-02-19T13:54:49.905Z,10.46
2018-02-19T13:55:55.411Z,10.32
2018-02-19T13:57:00.999Z,10.21
2018-02-19T13:58:06.435Z,10.03
2018-02-19T13:59:11.938Z,9.97
2018-02-19T14:00:17.449Z,9.93
2018-02-19T14:01:22.960Z,9.85
2018-02-19T14:02:28.472Z,9.70
2018-02-19T14:03:33.991Z,9.66
2018-02-19T14:04:39.507Z,9.56
2018-02-19T14:05:45.003Z,9.58
2018-02-19T14:06:50.530Z,9.56
2018-02-19T14:07:56.030Z,9.45
2018-02-19T14:09:01.543Z,9.45
2018-02-19T14:10:07.051Z,9.39
2018-02-19T14:11:12.566Z,9.35
2018-02-19T14:12:18.079Z,9.35
2018-02-19T14:13:23.582Z,9.39
2018-02-19T14:14:29.120Z,9.28
2018-02-19T14:15:34.605Z,9.40
2018-02-19T14:16:40.115Z,9.39
2018-02-19T14:17:45.629Z,9.31
2018-02-19T14:18:51.137Z,9.28
2018-02-19T14:19:56.648Z,9.34
2018-02-19T14:21:02.162Z,9.25
2018-02-19T14:22:07.676Z,9.10
2018-02-19T14:23:13.191Z,9.12
2018-02-19T14:24:18.742Z,9.05
2018-02-19T14:25:24.198Z,9.01
2018-02-19T14:26:29.714Z,9.01
2018-02-19T14:27:35.226Z,8.90
2018-02-19T14:28:40.733Z,8.88
2018-02-19T14:29:46.242Z,8.83